sensor_id;sensor_type;location;lat;lon;timestamp;P1;durP1;ratioP1;P2;durP2;ratioP2
55210;SDS011;41082;52.822;6.666;2023-02-28T00:00:24;4.50;;;0.88;;
55210;SDS011;41082;52.822;6.666;2023-02-28T00:02:49;3.95;;;0.77;;
55210;SDS011;41082;52.822;6.666;2023-02-28T00:05:16;5.90;;;1.27;;
55210;SDS011;41082;52.822;6.666;2023-02-28T00:07:44;6.60;;;0.98;;
55210;SDS011;41082;52.822;6.666;2023-02-28T00:10:11;3.65;;;1.02;;
55210;SDS011;41082;52.822;6.666;2023-02-28T00:12:39;5.43;;;1.42;;
55210;SDS011;41082;52.822;6.666;2023-02-28T00:15:05;7.47;;;1.52;;
55210;SDS011;41082;52.822;6.666;2023-02-28T00:17:34;7.60;;;1.35;;
55210;SDS011;41082;52.822;6.666;2023-02-28T00:20:00;5.18;;;1.02;;
55210;SDS011;41082;52.822;6.666;2023-02-28T00:22:37;7.07;;;1.27;;
55210;SDS011;41082;52.822;6.666;2023-02-28T00:25:04;3.30;;;1.10;;
55210;SDS011;41082;52.822;6.666;2023-02-28T00:27:32;4.57;;;1.20;;
55210;SDS011;41082;52.822;6.666;2023-02-28T00:29:58;8.45;;;1.02;;
55210;SDS011;41082;52.822;6.666;2023-02-28T00:32:23;3.28;;;1.05;;
55210;SDS011;41082;52.822;6.666;2023-02-28T00:34:49;4.57;;;1.10;;
55210;SDS011;41082;52.822;6.666;2023-02-28T00:37:14;3.13;;;1.52;;
55210;SDS011;41082;52.822;6.666;2023-02-28T00:39:40;4.30;;;1.33;;
55210;SDS011;41082;52.822;6.666;2023-02-28T00:42:06;4.28;;;1.15;;
55210;SDS011;41082;52.822;6.666;2023-02-28T00:44:32;5.70;;;1.60;;
55210;SDS011;41082;52.822;6.666;2023-02-28T00:46:58;8.48;;;2.03;;
55210;SDS011;41082;52.822;6.666;2023-02-28T00:49:25;5.97;;;1.70;;
55210;SDS011;41082;52.822;6.666;2023-02-28T00:51:52;5.38;;;1.70;;
55210;SDS011;41082;52.822;6.666;2023-02-28T00:54:19;4.93;;;1.52;;
55210;SDS011;41082;52.822;6.666;2023-02-28T00:56:45;4.45;;;1.50;;
55210;SDS011;41082;52.822;6.666;2023-02-28T00:59:11;4.68;;;1.42;;
55210;SDS011;41082;52.822;6.666;2023-02-28T01:01:38;7.43;;;1.90;;
55210;SDS011;41082;52.822;6.666;2023-02-28T01:04:03;4.25;;;1.40;;
55210;SDS011;41082;52.822;6.666;2023-02-28T01:06:29;6.60;;;1.38;;
55210;SDS011;41082;52.822;6.666;2023-02-28T01:08:56;6.22;;;1.73;;
55210;SDS011;41082;52.822;6.666;2023-02-28T01:11:22;3.08;;;1.40;;
55210;SDS011;41082;52.822;6.666;2023-02-28T01:13:48;6.20;;;1.55;;
55210;SDS011;41082;52.822;6.666;2023-02-28T01:16:13;4.63;;;1.80;;
55210;SDS011;41082;52.822;6.666;2023-02-28T01:18:39;5.90;;;1.42;;
55210;SDS011;41082;52.822;6.666;2023-02-28T01:21:06;3.15;;;1.02;;
55210;SDS011;41082;52.822;6.666;2023-02-28T01:23:34;5.15;;;1.30;;
55210;SDS011;41082;52.822;6.666;2023-02-28T01:26:03;6.25;;;2.40;;
55210;SDS011;41082;52.822;6.666;2023-02-28T01:28:32;6.43;;;1.88;;
55210;SDS011;41082;52.822;6.666;2023-02-28T01:30:58;4.38;;;1.48;;
55210;SDS011;41082;52.822;6.666;2023-02-28T01:33:24;5.00;;;1.50;;
55210;SDS011;41082;52.822;6.666;2023-02-28T01:35:56;7.00;;;1.50;;
55210;SDS011;41082;52.822;6.666;2023-02-28T01:38:23;4.82;;;1.40;;
55210;SDS011;41082;52.822;6.666;2023-02-28T01:40:49;6.45;;;1.50;;
55210;SDS011;41082;52.822;6.666;2023-02-28T01:43:23;3.67;;;1.67;;
55210;SDS011;41082;52.822;6.666;2023-02-28T01:45:53;3.65;;;1.48;;
55210;SDS011;41082;52.822;6.666;2023-02-28T01:48:24;3.35;;;1.45;;
55210;SDS011;41082;52.822;6.666;2023-02-28T01:50:53;3.67;;;1.38;;
55210;SDS011;41082;52.822;6.666;2023-02-28T01:53:26;4.22;;;1.63;;
55210;SDS011;41082;52.822;6.666;2023-02-28T01:55:59;5.63;;;1.60;;
55210;SDS011;41082;52.822;6.666;2023-02-28T01:58:26;7.38;;;2.08;;
55210;SDS011;41082;52.822;6.666;2023-02-28T02:00:51;8.50;;;1.77;;
55210;SDS011;41082;52.822;6.666;2023-02-28T02:03:18;4.03;;;1.60;;
55210;SDS011;41082;52.822;6.666;2023-02-28T02:05:45;8.07;;;2.25;;
55210;SDS011;41082;52.822;6.666;2023-02-28T02:08:17;3.80;;;1.42;;
55210;SDS011;41082;52.822;6.666;2023-02-28T02:10:53;4.18;;;1.50;;
55210;SDS011;41082;52.822;6.666;2023-02-28T02:18:47;6.35;;;1.63;;
55210;SDS011;41082;52.822;6.666;2023-02-28T02:29:48;6.88;;;2.05;;
55210;SDS011;41082;52.822;6.666;2023-02-28T02:32:54;5.20;;;2.28;;
55210;SDS011;41082;52.822;6.666;2023-02-28T02:43:53;7.75;;;2.25;;
55210;SDS011;41082;52.822;6.666;2023-02-28T02:46:28;5.07;;;1.95;;
55210;SDS011;41082;52.822;6.666;2023-02-28T02:48:58;3.65;;;1.55;;
55210;SDS011;41082;52.822;6.666;2023-02-28T02:51:27;5.88;;;1.90;;
55210;SDS011;41082;52.822;6.666;2023-02-28T02:56:46;5.20;;;1.85;;
55210;SDS011;41082;52.822;6.666;2023-02-28T02:59:16;5.53;;;1.95;;
55210;SDS011;41082;52.822;6.666;2023-02-28T03:04:16;5.88;;;2.45;;
55210;SDS011;41082;52.822;6.666;2023-02-28T03:06:49;5.45;;;2.63;;
55210;SDS011;41082;52.822;6.666;2023-02-28T03:09:20;4.75;;;2.90;;
55210;SDS011;41082;52.822;6.666;2023-02-28T03:11:46;5.47;;;2.85;;
55210;SDS011;41082;52.822;6.666;2023-02-28T03:19:30;9.63;;;4.00;;
55210;SDS011;41082;52.822;6.666;2023-02-28T03:27:27;11.40;;;4.38;;
55210;SDS011;41082;52.822;6.666;2023-02-28T03:32:33;7.82;;;4.03;;
55210;SDS011;41082;52.822;6.666;2023-02-28T03:35:05;8.98;;;4.40;;
55210;SDS011;41082;52.822;6.666;2023-02-28T03:37:35;6.45;;;4.57;;
55210;SDS011;41082;52.822;6.666;2023-02-28T03:40:07;7.00;;;4.93;;
55210;SDS011;41082;52.822;6.666;2023-02-28T03:42:38;8.65;;;4.75;;
55210;SDS011;41082;52.822;6.666;2023-02-28T03:45:16;9.63;;;4.25;;
55210;SDS011;41082;52.822;6.666;2023-02-28T03:48:00;7.43;;;4.57;;
55210;SDS011;41082;52.822;6.666;2023-02-28T03:50:45;7.18;;;4.10;;
55210;SDS011;41082;52.822;6.666;2023-02-28T03:53:15;7.78;;;4.45;;
55210;SDS011;41082;52.822;6.666;2023-02-28T03:55:53;7.85;;;4.25;;
55210;SDS011;41082;52.822;6.666;2023-02-28T03:58:34;9.52;;;4.20;;
55210;SDS011;41082;52.822;6.666;2023-02-28T04:01:08;8.02;;;4.07;;
55210;SDS011;41082;52.822;6.666;2023-02-28T04:03:46;6.13;;;4.45;;
55210;SDS011;41082;52.822;6.666;2023-02-28T04:06:16;7.03;;;4.53;;
55210;SDS011;41082;52.822;6.666;2023-02-28T04:08:44;8.27;;;4.18;;
55210;SDS011;41082;52.822;6.666;2023-02-28T04:16:18;8.73;;;5.22;;
55210;SDS011;41082;52.822;6.666;2023-02-28T04:18:44;9.60;;;4.82;;
55210;SDS011;41082;52.822;6.666;2023-02-28T04:21:09;10.32;;;5.55;;
55210;SDS011;41082;52.822;6.666;2023-02-28T04:23:36;11.25;;;5.63;;
55210;SDS011;41082;52.822;6.666;2023-02-28T04:26:02;9.57;;;6.32;;
55210;SDS011;41082;52.822;6.666;2023-02-28T04:28:28;9.48;;;5.93;;
55210;SDS011;41082;52.822;6.666;2023-02-28T04:30:55;9.40;;;6.35;;
55210;SDS011;41082;52.822;6.666;2023-02-28T04:33:22;8.50;;;5.78;;
55210;SDS011;41082;52.822;6.666;2023-02-28T04:35:47;8.07;;;5.15;;
55210;SDS011;41082;52.822;6.666;2023-02-28T04:38:13;10.07;;;6.38;;
55210;SDS011;41082;52.822;6.666;2023-02-28T04:40:38;8.85;;;5.90;;
55210;SDS011;41082;52.822;6.666;2023-02-28T04:43:04;12.32;;;6.68;;
55210;SDS011;41082;52.822;6.666;2023-02-28T04:45:29;9.48;;;5.97;;
55210;SDS011;41082;52.822;6.666;2023-02-28T04:47:57;11.18;;;6.45;;
55210;SDS011;41082;52.822;6.666;2023-02-28T04:50:23;10.30;;;6.65;;
55210;SDS011;41082;52.822;6.666;2023-02-28T04:52:48;11.43;;;6.63;;
55210;SDS011;41082;52.822;6.666;2023-02-28T04:55:14;10.43;;;7.13;;
55210;SDS011;41082;52.822;6.666;2023-02-28T04:57:40;10.43;;;6.25;;
55210;SDS011;41082;52.822;6.666;2023-02-28T05:00:07;12.52;;;7.03;;
55210;SDS011;41082;52.822;6.666;2023-02-28T05:02:36;12.77;;;6.72;;
55210;SDS011;41082;52.822;6.666;2023-02-28T05:05:04;10.57;;;6.45;;
55210;SDS011;41082;52.822;6.666;2023-02-28T05:07:29;11.05;;;6.30;;
55210;SDS011;41082;52.822;6.666;2023-02-28T05:09:55;12.13;;;7.05;;
55210;SDS011;41082;52.822;6.666;2023-02-28T05:12:21;13.05;;;6.60;;
55210;SDS011;41082;52.822;6.666;2023-02-28T05:14:46;11.00;;;6.10;;
55210;SDS011;41082;52.822;6.666;2023-02-28T05:17:12;9.65;;;5.63;;
55210;SDS011;41082;52.822;6.666;2023-02-28T05:19:37;11.43;;;6.05;;
55210;SDS011;41082;52.822;6.666;2023-02-28T05:22:03;10.32;;;6.57;;
55210;SDS011;41082;52.822;6.666;2023-02-28T05:24:28;12.13;;;6.75;;
55210;SDS011;41082;52.822;6.666;2023-02-28T05:26:54;9.75;;;5.80;;
55210;SDS011;41082;52.822;6.666;2023-02-28T05:29:20;9.73;;;6.50;;
55210;SDS011;41082;52.822;6.666;2023-02-28T05:31:46;10.73;;;5.40;;
55210;SDS011;41082;52.822;6.666;2023-02-28T05:34:12;11.00;;;6.32;;
55210;SDS011;41082;52.822;6.666;2023-02-28T05:36:40;11.38;;;6.90;;
55210;SDS011;41082;52.822;6.666;2023-02-28T05:39:06;12.20;;;6.22;;
55210;SDS011;41082;52.822;6.666;2023-02-28T05:41:41;11.90;;;6.65;;
55210;SDS011;41082;52.822;6.666;2023-02-28T05:44:07;9.63;;;6.88;;
55210;SDS011;41082;52.822;6.666;2023-02-28T05:46:33;12.73;;;6.47;;
55210;SDS011;41082;52.822;6.666;2023-02-28T05:48:58;9.93;;;6.93;;
55210;SDS011;41082;52.822;6.666;2023-02-28T05:51:25;15.13;;;7.88;;
55210;SDS011;41082;52.822;6.666;2023-02-28T05:53:51;10.63;;;6.57;;
55210;SDS011;41082;52.822;6.666;2023-02-28T05:56:16;11.88;;;7.38;;
55210;SDS011;41082;52.822;6.666;2023-02-28T05:58:42;9.43;;;6.40;;
55210;SDS011;41082;52.822;6.666;2023-02-28T06:01:24;8.05;;;6.13;;
55210;SDS011;41082;52.822;6.666;2023-02-28T06:03:59;10.57;;;6.88;;
55210;SDS011;41082;52.822;6.666;2023-02-28T06:06:26;14.02;;;7.32;;
55210;SDS011;41082;52.822;6.666;2023-02-28T06:08:52;15.68;;;7.90;;
55210;SDS011;41082;52.822;6.666;2023-02-28T06:11:17;13.13;;;7.03;;
55210;SDS011;41082;52.822;6.666;2023-02-28T06:13:44;10.00;;;7.10;;
55210;SDS011;41082;52.822;6.666;2023-02-28T06:16:10;13.90;;;7.00;;
55210;SDS011;41082;52.822;6.666;2023-02-28T06:18:36;11.80;;;6.68;;
55210;SDS011;41082;52.822;6.666;2023-02-28T06:21:02;12.68;;;7.13;;
55210;SDS011;41082;52.822;6.666;2023-02-28T06:23:27;10.00;;;7.53;;
55210;SDS011;41082;52.822;6.666;2023-02-28T06:25:53;13.18;;;7.88;;
55210;SDS011;41082;52.822;6.666;2023-02-28T06:28:22;12.07;;;7.55;;
55210;SDS011;41082;52.822;6.666;2023-02-28T06:30:48;11.30;;;7.68;;
55210;SDS011;41082;52.822;6.666;2023-02-28T06:33:13;13.70;;;8.00;;
55210;SDS011;41082;52.822;6.666;2023-02-28T06:35:39;12.95;;;6.38;;
55210;SDS011;41082;52.822;6.666;2023-02-28T06:38:04;8.43;;;6.53;;
55210;SDS011;41082;52.822;6.666;2023-02-28T06:40:30;8.93;;;5.97;;
55210;SDS011;41082;52.822;6.666;2023-02-28T06:42:59;9.48;;;6.63;;
55210;SDS011;41082;52.822;6.666;2023-02-28T06:45:24;10.93;;;7.10;;
55210;SDS011;41082;52.822;6.666;2023-02-28T06:47:51;9.93;;;6.45;;
55210;SDS011;41082;52.822;6.666;2023-02-28T06:50:17;12.43;;;6.70;;
55210;SDS011;41082;52.822;6.666;2023-02-28T06:52:44;9.45;;;7.10;;
55210;SDS011;41082;52.822;6.666;2023-02-28T06:55:10;11.55;;;6.93;;
55210;SDS011;41082;52.822;6.666;2023-02-28T06:57:36;12.93;;;7.57;;
55210;SDS011;41082;52.822;6.666;2023-02-28T07:00:08;10.98;;;7.18;;
55210;SDS011;41082;52.822;6.666;2023-02-28T07:02:38;12.25;;;7.72;;
55210;SDS011;41082;52.822;6.666;2023-02-28T07:05:04;16.75;;;8.45;;
55210;SDS011;41082;52.822;6.666;2023-02-28T07:07:31;13.23;;;7.85;;
55210;SDS011;41082;52.822;6.666;2023-02-28T07:09:57;13.93;;;7.93;;
55210;SDS011;41082;52.822;6.666;2023-02-28T07:12:22;10.27;;;7.28;;
55210;SDS011;41082;52.822;6.666;2023-02-28T07:14:48;14.23;;;8.23;;
55210;SDS011;41082;52.822;6.666;2023-02-28T07:17:13;12.30;;;7.65;;
55210;SDS011;41082;52.822;6.666;2023-02-28T07:19:39;11.55;;;8.55;;
55210;SDS011;41082;52.822;6.666;2023-02-28T07:22:05;12.82;;;7.90;;
55210;SDS011;41082;52.822;6.666;2023-02-28T07:24:31;12.98;;;8.02;;
55210;SDS011;41082;52.822;6.666;2023-02-28T07:26:57;13.63;;;8.70;;
55210;SDS011;41082;52.822;6.666;2023-02-28T07:29:24;12.30;;;8.88;;
55210;SDS011;41082;52.822;6.666;2023-02-28T07:31:50;12.57;;;8.07;;
55210;SDS011;41082;52.822;6.666;2023-02-28T07:34:18;14.32;;;8.60;;
55210;SDS011;41082;52.822;6.666;2023-02-28T07:36:44;14.00;;;8.32;;
55210;SDS011;41082;52.822;6.666;2023-02-28T07:39:09;15.90;;;8.82;;
55210;SDS011;41082;52.822;6.666;2023-02-28T07:41:35;13.73;;;9.30;;
55210;SDS011;41082;52.822;6.666;2023-02-28T07:44:08;12.55;;;8.93;;
55210;SDS011;41082;52.822;6.666;2023-02-28T07:46:37;11.18;;;8.38;;
55210;SDS011;41082;52.822;6.666;2023-02-28T07:49:03;13.50;;;8.23;;
55210;SDS011;41082;52.822;6.666;2023-02-28T07:51:29;12.75;;;8.30;;
55210;SDS011;41082;52.822;6.666;2023-02-28T07:53:55;11.50;;;7.82;;
55210;SDS011;41082;52.822;6.666;2023-02-28T07:56:22;14.38;;;8.23;;
55210;SDS011;41082;52.822;6.666;2023-02-28T07:58:48;13.75;;;8.43;;
55210;SDS011;41082;52.822;6.666;2023-02-28T08:01:13;13.63;;;8.40;;
55210;SDS011;41082;52.822;6.666;2023-02-28T08:03:39;13.85;;;8.25;;
55210;SDS011;41082;52.822;6.666;2023-02-28T08:06:06;11.45;;;7.85;;
55210;SDS011;41082;52.822;6.666;2023-02-28T08:08:33;11.40;;;7.13;;
55210;SDS011;41082;52.822;6.666;2023-02-28T08:10:59;11.68;;;6.97;;
55210;SDS011;41082;52.822;6.666;2023-02-28T08:13:28;10.27;;;6.60;;
55210;SDS011;41082;52.822;6.666;2023-02-28T08:15:55;11.95;;;7.53;;
55210;SDS011;41082;52.822;6.666;2023-02-28T08:18:21;11.57;;;6.55;;
55210;SDS011;41082;52.822;6.666;2023-02-28T08:20:48;11.32;;;6.60;;
55210;SDS011;41082;52.822;6.666;2023-02-28T08:23:13;14.85;;;5.93;;
55210;SDS011;41082;52.822;6.666;2023-02-28T08:25:39;8.57;;;6.13;;
55210;SDS011;41082;52.822;6.666;2023-02-28T08:28:05;9.57;;;4.95;;
55210;SDS011;41082;52.822;6.666;2023-02-28T08:30:30;12.80;;;5.70;;
55210;SDS011;41082;52.822;6.666;2023-02-28T08:32:56;8.80;;;6.03;;
55210;SDS011;41082;52.822;6.666;2023-02-28T08:35:22;8.82;;;5.97;;
55210;SDS011;41082;52.822;6.666;2023-02-28T08:37:48;6.78;;;4.88;;
55210;SDS011;41082;52.822;6.666;2023-02-28T08:40:14;12.00;;;5.47;;
55210;SDS011;41082;52.822;6.666;2023-02-28T08:42:47;9.13;;;5.28;;
55210;SDS011;41082;52.822;6.666;2023-02-28T08:45:13;11.27;;;5.20;;
55210;SDS011;41082;52.822;6.666;2023-02-28T08:47:39;9.13;;;4.75;;
55210;SDS011;41082;52.822;6.666;2023-02-28T08:50:06;9.93;;;4.72;;
55210;SDS011;41082;52.822;6.666;2023-02-28T08:52:32;11.10;;;4.93;;
55210;SDS011;41082;52.822;6.666;2023-02-28T08:54:58;9.50;;;5.05;;
55210;SDS011;41082;52.822;6.666;2023-02-28T08:57:24;8.63;;;3.83;;
55210;SDS011;41082;52.822;6.666;2023-02-28T08:59:53;8.18;;;4.10;;
55210;SDS011;41082;52.822;6.666;2023-02-28T09:02:18;5.10;;;3.67;;
55210;SDS011;41082;52.822;6.666;2023-02-28T09:04:44;5.03;;;3.75;;
55210;SDS011;41082;52.822;6.666;2023-02-28T09:07:13;5.47;;;3.42;;
55210;SDS011;41082;52.822;6.666;2023-02-28T09:09:39;6.78;;;3.85;;
55210;SDS011;41082;52.822;6.666;2023-02-28T09:12:18;7.60;;;3.70;;
55210;SDS011;41082;52.822;6.666;2023-02-28T09:14:48;6.00;;;3.70;;
55210;SDS011;41082;52.822;6.666;2023-02-28T09:17:13;6.10;;;3.53;;
55210;SDS011;41082;52.822;6.666;2023-02-28T09:19:40;9.05;;;3.65;;
55210;SDS011;41082;52.822;6.666;2023-02-28T09:22:05;6.47;;;4.10;;
55210;SDS011;41082;52.822;6.666;2023-02-28T09:24:31;6.93;;;3.88;;
55210;SDS011;41082;52.822;6.666;2023-02-28T09:26:56;4.15;;;2.53;;
55210;SDS011;41082;52.822;6.666;2023-02-28T09:29:22;4.95;;;2.30;;
55210;SDS011;41082;52.822;6.666;2023-02-28T09:31:48;4.32;;;1.98;;
55210;SDS011;41082;52.822;6.666;2023-02-28T09:34:13;5.32;;;2.50;;
55210;SDS011;41082;52.822;6.666;2023-02-28T09:36:39;5.43;;;2.60;;
55210;SDS011;41082;52.822;6.666;2023-02-28T09:39:04;5.13;;;3.05;;
55210;SDS011;41082;52.822;6.666;2023-02-28T09:41:46;5.78;;;3.15;;
55210;SDS011;41082;52.822;6.666;2023-02-28T09:44:20;5.10;;;3.20;;
55210;SDS011;41082;52.822;6.666;2023-02-28T09:47:01;6.25;;;3.45;;
55210;SDS011;41082;52.822;6.666;2023-02-28T09:49:46;6.45;;;2.95;;
55210;SDS011;41082;52.822;6.666;2023-02-28T09:52:23;5.40;;;2.60;;
55210;SDS011;41082;52.822;6.666;2023-02-28T09:54:53;8.23;;;3.50;;
55210;SDS011;41082;52.822;6.666;2023-02-28T10:02:52;5.60;;;2.80;;
55210;SDS011;41082;52.822;6.666;2023-02-28T10:05:50;3.45;;;1.60;;
55210;SDS011;41082;52.822;6.666;2023-02-28T10:08:23;3.38;;;1.60;;
55210;SDS011;41082;52.822;6.666;2023-02-28T10:11:15;4.55;;;2.22;;
55210;SDS011;41082;52.822;6.666;2023-02-28T10:13:48;4.03;;;1.88;;
55210;SDS011;41082;52.822;6.666;2023-02-28T10:19:26;2.25;;;1.02;;
55210;SDS011;41082;52.822;6.666;2023-02-28T10:22:11;2.35;;;1.33;;
55210;SDS011;41082;52.822;6.666;2023-02-28T10:24:51;2.70;;;1.00;;
55210;SDS011;41082;52.822;6.666;2023-02-28T10:27:19;2.25;;;1.15;;
55210;SDS011;41082;52.822;6.666;2023-02-28T10:29:47;5.05;;;1.23;;
55210;SDS011;41082;52.822;6.666;2023-02-28T10:32:18;2.35;;;1.05;;
55210;SDS011;41082;52.822;6.666;2023-02-28T10:35:31;6.30;;;1.30;;
55210;SDS011;41082;52.822;6.666;2023-02-28T10:37:37;2.10;;;0.68;;
55210;SDS011;41082;52.822;6.666;2023-02-28T10:40:04;2.38;;;0.95;;
55210;SDS011;41082;52.822;6.666;2023-02-28T10:42:31;3.22;;;1.02;;
55210;SDS011;41082;52.822;6.666;2023-02-28T10:45:14;2.60;;;1.05;;
55210;SDS011;41082;52.822;6.666;2023-02-28T10:47:48;4.00;;;0.93;;
55210;SDS011;41082;52.822;6.666;2023-02-28T10:50:27;2.90;;;0.93;;
55210;SDS011;41082;52.822;6.666;2023-02-28T11:01:22;2.28;;;0.77;;
55210;SDS011;41082;52.822;6.666;2023-02-28T11:03:50;2.58;;;0.93;;
55210;SDS011;41082;52.822;6.666;2023-02-28T11:06:21;3.60;;;1.20;;
55210;SDS011;41082;52.822;6.666;2023-02-28T11:08:51;2.03;;;1.00;;
55210;SDS011;41082;52.822;6.666;2023-02-28T11:11:20;3.17;;;0.82;;
55210;SDS011;41082;52.822;6.666;2023-02-28T11:13:48;2.45;;;1.05;;
55210;SDS011;41082;52.822;6.666;2023-02-28T11:16:17;2.22;;;1.00;;
55210;SDS011;41082;52.822;6.666;2023-02-28T11:18:46;5.13;;;1.20;;
55210;SDS011;41082;52.822;6.666;2023-02-28T11:21:20;2.58;;;1.38;;
55210;SDS011;41082;52.822;6.666;2023-02-28T11:23:49;3.75;;;1.20;;
55210;SDS011;41082;52.822;6.666;2023-02-28T11:26:35;3.28;;;0.82;;
55210;SDS011;41082;52.822;6.666;2023-02-28T11:29:22;3.97;;;1.35;;
55210;SDS011;41082;52.822;6.666;2023-02-28T11:34:38;2.80;;;0.60;;
55210;SDS011;41082;52.822;6.666;2023-02-28T11:37:08;4.90;;;1.95;;
55210;SDS011;41082;52.822;6.666;2023-02-28T11:39:38;3.78;;;0.68;;
55210;SDS011;41082;52.822;6.666;2023-02-28T11:42:10;2.40;;;0.90;;
55210;SDS011;41082;52.822;6.666;2023-02-28T11:44:45;4.80;;;0.68;;
55210;SDS011;41082;52.822;6.666;2023-02-28T11:55:42;3.95;;;0.63;;
55210;SDS011;41082;52.822;6.666;2023-02-28T11:58:17;2.42;;;0.65;;
55210;SDS011;41082;52.822;6.666;2023-02-28T12:06:13;1.88;;;1.17;;
55210;SDS011;41082;52.822;6.666;2023-02-28T12:11:47;3.58;;;0.90;;
55210;SDS011;41082;52.822;6.666;2023-02-28T12:20:31;2.28;;;0.77;;
55210;SDS011;41082;52.822;6.666;2023-02-28T12:26:19;2.03;;;0.68;;
55210;SDS011;41082;52.822;6.666;2023-02-28T12:28:27;1.88;;;0.70;;
55210;SDS011;41082;52.822;6.666;2023-02-28T12:33:43;3.40;;;0.60;;
55210;SDS011;41082;52.822;6.666;2023-02-28T12:36:13;2.47;;;0.60;;
55210;SDS011;41082;52.822;6.666;2023-02-28T12:41:16;1.40;;;0.70;;
55210;SDS011;41082;52.822;6.666;2023-02-28T12:43:47;2.58;;;0.73;;
55210;SDS011;41082;52.822;6.666;2023-02-28T12:46:24;1.88;;;0.70;;
55210;SDS011;41082;52.822;6.666;2023-02-28T12:48:56;3.78;;;0.90;;
55210;SDS011;41082;52.822;6.666;2023-02-28T12:51:24;3.20;;;0.90;;
55210;SDS011;41082;52.822;6.666;2023-02-28T12:53:59;2.55;;;0.75;;
55210;SDS011;41082;52.822;6.666;2023-02-28T13:10:22;3.00;;;0.80;;
55210;SDS011;41082;52.822;6.666;2023-02-28T13:12:49;4.20;;;0.73;;
55210;SDS011;41082;52.822;6.666;2023-02-28T13:15:28;2.03;;;0.75;;
55210;SDS011;41082;52.822;6.666;2023-02-28T13:17:58;1.75;;;1.00;;
55210;SDS011;41082;52.822;6.666;2023-02-28T13:23:00;2.55;;;0.90;;
55210;SDS011;41082;52.822;6.666;2023-02-28T13:28:02;3.45;;;1.08;;
55210;SDS011;41082;52.822;6.666;2023-02-28T13:33:23;2.40;;;1.02;;
55210;SDS011;41082;52.822;6.666;2023-02-28T13:38:50;2.58;;;1.30;;
55210;SDS011;41082;52.822;6.666;2023-02-28T13:46:32;3.97;;;1.23;;
55210;SDS011;41082;52.822;6.666;2023-02-28T13:49:31;4.55;;;0.85;;
55210;SDS011;41082;52.822;6.666;2023-02-28T13:52:19;1.70;;;0.80;;
55210;SDS011;41082;52.822;6.666;2023-02-28T13:57:33;1.80;;;0.80;;
55210;SDS011;41082;52.822;6.666;2023-02-28T14:02:48;2.05;;;0.90;;
55210;SDS011;41082;52.822;6.666;2023-02-28T14:05:34;2.15;;;0.75;;
55210;SDS011;41082;52.822;6.666;2023-02-28T14:08:04;3.28;;;0.90;;
55210;SDS011;41082;52.822;6.666;2023-02-28T14:10:43;2.95;;;0.80;;
55210;SDS011;41082;52.822;6.666;2023-02-28T14:13:12;2.15;;;0.95;;
55210;SDS011;41082;52.822;6.666;2023-02-28T14:15:58;2.78;;;0.63;;
55210;SDS011;41082;52.822;6.666;2023-02-28T14:18:29;4.63;;;0.82;;
55210;SDS011;41082;52.822;6.666;2023-02-28T14:24:01;2.53;;;0.90;;
55210;SDS011;41082;52.822;6.666;2023-02-28T14:26:49;2.58;;;0.90;;
55210;SDS011;41082;52.822;6.666;2023-02-28T14:29:58;1.73;;;0.70;;
55210;SDS011;41082;52.822;6.666;2023-02-28T14:32:43;2.28;;;0.63;;
55210;SDS011;41082;52.822;6.666;2023-02-28T14:37:46;2.25;;;1.00;;
55210;SDS011;41082;52.822;6.666;2023-02-28T14:40:19;2.47;;;0.93;;
55210;SDS011;41082;52.822;6.666;2023-02-28T14:42:56;3.65;;;1.00;;
55210;SDS011;41082;52.822;6.666;2023-02-28T14:45:24;1.13;;;0.65;;
55210;SDS011;41082;52.822;6.666;2023-02-28T14:47:54;2.67;;;0.80;;
55210;SDS011;41082;52.822;6.666;2023-02-28T14:50:20;2.22;;;0.80;;
55210;SDS011;41082;52.822;6.666;2023-02-28T14:52:50;1.05;;;0.63;;
55210;SDS011;41082;52.822;6.666;2023-02-28T14:55:18;1.27;;;0.60;;
55210;SDS011;41082;52.822;6.666;2023-02-28T14:58:06;2.50;;;0.70;;
55210;SDS011;41082;52.822;6.666;2023-02-28T15:00:49;2.53;;;1.25;;
55210;SDS011;41082;52.822;6.666;2023-02-28T15:03:20;4.60;;;1.47;;
55210;SDS011;41082;52.822;6.666;2023-02-28T15:08:17;3.00;;;1.08;;
55210;SDS011;41082;52.822;6.666;2023-02-28T15:11:06;4.85;;;1.02;;
55210;SDS011;41082;52.822;6.666;2023-02-28T15:13:40;3.65;;;1.33;;
55210;SDS011;41082;52.822;6.666;2023-02-28T15:16:12;3.10;;;0.77;;
55210;SDS011;41082;52.822;6.666;2023-02-28T15:18:44;3.45;;;1.00;;
55210;SDS011;41082;52.822;6.666;2023-02-28T15:24:12;2.17;;;0.80;;
55210;SDS011;41082;52.822;6.666;2023-02-28T15:26:51;2.35;;;0.80;;
55210;SDS011;41082;52.822;6.666;2023-02-28T15:29:21;2.30;;;0.85;;
55210;SDS011;41082;52.822;6.666;2023-02-28T15:32:02;2.63;;;1.02;;
55210;SDS011;41082;52.822;6.666;2023-02-28T15:37:06;2.25;;;1.30;;
55210;SDS011;41082;52.822;6.666;2023-02-28T15:39:53;2.78;;;1.23;;
55210;SDS011;41082;52.822;6.666;2023-02-28T15:42:21;4.80;;;1.17;;
55210;SDS011;41082;52.822;6.666;2023-02-28T15:44:52;1.83;;;0.95;;
55210;SDS011;41082;52.822;6.666;2023-02-28T15:47:18;4.35;;;1.30;;
55210;SDS011;41082;52.822;6.666;2023-02-28T15:54:57;2.33;;;1.08;;
55210;SDS011;41082;52.822;6.666;2023-02-28T15:57:25;2.35;;;1.08;;
55210;SDS011;41082;52.822;6.666;2023-02-28T15:59:54;2.85;;;1.73;;
55210;SDS011;41082;52.822;6.666;2023-02-28T16:02:35;4.40;;;1.90;;
55210;SDS011;41082;52.822;6.666;2023-02-28T16:05:16;2.90;;;1.60;;
55210;SDS011;41082;52.822;6.666;2023-02-28T16:07:43;3.63;;;1.30;;
55210;SDS011;41082;52.822;6.666;2023-02-28T16:10:10;5.90;;;1.85;;
55210;SDS011;41082;52.822;6.666;2023-02-28T16:12:37;2.47;;;1.60;;
55210;SDS011;41082;52.822;6.666;2023-02-28T16:15:08;2.67;;;1.55;;
55210;SDS011;41082;52.822;6.666;2023-02-28T16:17:52;2.88;;;2.05;;
55210;SDS011;41082;52.822;6.666;2023-02-28T16:20:20;4.32;;;2.70;;
55210;SDS011;41082;52.822;6.666;2023-02-28T16:22:47;2.58;;;1.73;;
55210;SDS011;41082;52.822;6.666;2023-02-28T16:25:14;8.07;;;5.03;;
55210;SDS011;41082;52.822;6.666;2023-02-28T16:27:41;11.85;;;7.80;;
55210;SDS011;41082;52.822;6.666;2023-02-28T16:30:14;8.90;;;5.75;;
55210;SDS011;41082;52.822;6.666;2023-02-28T16:32:45;5.20;;;3.15;;
55210;SDS011;41082;52.822;6.666;2023-02-28T16:35:11;6.38;;;2.30;;
55210;SDS011;41082;52.822;6.666;2023-02-28T16:37:39;3.10;;;2.13;;
55210;SDS011;41082;52.822;6.666;2023-02-28T16:40:05;5.70;;;3.20;;
55210;SDS011;41082;52.822;6.666;2023-02-28T16:42:31;3.78;;;1.88;;
55210;SDS011;41082;52.822;6.666;2023-02-28T16:44:57;2.60;;;2.10;;
55210;SDS011;41082;52.822;6.666;2023-02-28T16:47:23;2.65;;;1.73;;
55210;SDS011;41082;52.822;6.666;2023-02-28T16:49:49;4.15;;;1.52;;
55210;SDS011;41082;52.822;6.666;2023-02-28T16:52:14;2.15;;;1.17;;
55210;SDS011;41082;52.822;6.666;2023-02-28T16:54:40;2.58;;;1.30;;
55210;SDS011;41082;52.822;6.666;2023-02-28T16:57:11;1.90;;;1.35;;
55210;SDS011;41082;52.822;6.666;2023-02-28T16:59:43;3.70;;;1.30;;
55210;SDS011;41082;52.822;6.666;2023-02-28T17:02:14;2.92;;;1.30;;
55210;SDS011;41082;52.822;6.666;2023-02-28T17:04:44;4.18;;;2.20;;
55210;SDS011;41082;52.822;6.666;2023-02-28T17:07:13;5.93;;;3.35;;
55210;SDS011;41082;52.822;6.666;2023-02-28T17:09:41;1.67;;;1.10;;
55210;SDS011;41082;52.822;6.666;2023-02-28T17:12:07;3.97;;;1.75;;
55210;SDS011;41082;52.822;6.666;2023-02-28T17:14:33;4.05;;;2.67;;
55210;SDS011;41082;52.822;6.666;2023-02-28T17:16:58;3.70;;;2.15;;
55210;SDS011;41082;52.822;6.666;2023-02-28T17:19:24;4.22;;;2.17;;
55210;SDS011;41082;52.822;6.666;2023-02-28T17:21:50;2.95;;;1.83;;
55210;SDS011;41082;52.822;6.666;2023-02-28T17:24:15;3.50;;;1.30;;
55210;SDS011;41082;52.822;6.666;2023-02-28T17:26:41;3.35;;;1.63;;
55210;SDS011;41082;52.822;6.666;2023-02-28T17:29:18;3.17;;;2.10;;
55210;SDS011;41082;52.822;6.666;2023-02-28T17:31:45;4.93;;;1.80;;